Northern & Central Napa County

32 Stations

15 Minute Data | America/Los_Angeles
as of 5/6/26 11:02 AM PDT
Station Date Time Temp (°F) RH (%) Dew Pt (°F) Wind Spd (mph) Wind Dir (°) Wind Gust (mph) Latest Rain (In) Daily Rain (In) Daily Max Temp (°F) Daily Min Temp (°F)
Calistoga-North 5/6/26 1100 66.3   7.7 71   9 56.8   4.0 - - - 0.00 0.00 68.9   10.3 55.0   3.0
Stags Leap Dist (Chimney Rock) 5/6/26 1100 65.0   3.6 73   6 56.1   1.4 1.5   1.2 SE | 136 4.7   1.9 0.00 0.00 65.1   3.3 54.6   1.8
Diamond Mtn (McEachran) 5/6/26 1100 66.7   9.6 67   13 55.3   4.4 - - - - - 67.2   9.3 53.7   2.6
Diamond Mtn (Schramsberg) 5/6/26 1100 66.8   9.9 67   19 55.4   2.8 - - - 0.00 0.00 67.4   9.7 52.5   2.7
Stags Leap Dist (Silverado Vineyards) 5/6/26 1100 64.7   4.9 67   6 53.5   2.3 2.6   0.7 SSE | 155 6.4   1.5 0.00 0.00 65.0   4.8 54.1   2.2
Oak Knoll-East (Ranch 53) 5/6/26 1100 66.3   4.8 63   8 53.5   1.3 1.2   0.6 SE | 132 3.6   2.7 0.00 0.00 67.3   4.8 55.4   2.9
Rutherford-North (Mee Ln) 5/6/26 1100 68.3   7.6 63   9 55.3   3.5 3.2   1.7 ESE | 110 7.0   3.9 0.00 0.00 70.4   8.0 54.4   6.8
Frisinger Napa-NW 5/6/26 1100 66.4   6.9 66   13 54.6   1.7 3.3   2.0 E | 94 7.6   3.9 0.00 0.00 66.8   6.9 55.1   2.2
Napa-North (Ranch 29) 5/6/26 1100 65.1   5.1 66   10 53.5   0.9 1.9   1.0 E | 84 4.2   1.0 0.00 0.00 65.7   5.1 55.0   2.9
St. Helena (NVV Office) 5/6/26 1100 69.6   8.0 - - 0.9   1.0 SSE | 150 3.5   1.8 0.00 0.00 70.2   7.4 56.0   3.2
Crossroads Ranch 5/6/26 1100 66.2   5.8 70   5 56.0   3.8 2.6   0.6 ESE | 123 5.6   0.1 0.00 0.00 66.2   5.7 55.6   2.9
Oakville 5/6/26 1100 67.3   7.0 63   11 54.2   2.2 3.0   1.9 E | 100 5.8   0.4 0.00 0.00 68.4   7.1 55.4   3.1
OV561-East 5/6/26 1100 65.7   6.7 - - - - - - - 65.9   6.5 55.3   2.6
OV518-West 5/6/26 1100 66.7   7.5 - - - - - - - 66.9   6.6 55.4   3.0
Napa-NW (Ranch 54) 5/6/26 1100 68.4   6.9 60   12 54.1   1.5 0.5   0.3 NE | 39 2.1   1.4 0.00 0.00 70.0   7.1 55.5   2.6
Calistoga (Ranch 78) 5/6/26 1100 67.3   7.9 67   7 55.9   4.7 4.0   2.1 NW | 316 6.9   2.5 0.00 0.00 69.0   9.6 55.2   2.6
Yountville-SE (Ranch 85) 5/6/26 1100 65.4   4.7 68   9 54.5   1.1 1.1   2.1 ESE | 123 4.1   2.6 0.00 0.00 65.8   4.7 55.0   2.4
Yountville-South (Ranch 87) 5/6/26 1100 65.2   4.2 70   6 55.0   1.6 2.4   0.3 E | 100 5.0   0.1 0.00 0.00 65.5   4.2 55.2   2.8
Rutherford Hill Estate 5/6/26 1100 65.7   7.2 69   21 55.1   0.5 2.6   1.7 S | 176 5.9   3.1 0.00 0.00 67.8   8.3 54.4   3.3
Rutherford (STS) 5/6/26 1100 69.1   5.8 69   8 58.5   2.6 2.0   0.0 SSE | 153 4.9   0.2 0.00 0.00 71.4   8.2 55.1   2.8
Borreo (Soda Canyon) 5/6/26 1100 63.3   5.6 69   7 53.0   2.7 1.1   0.2 SW | 235 3.7   1.3 0.00 0.00 63.6   5.1 52.7   2.4
Oakville-NE (Ranch 88) 5/6/26 1100 67.8   6.8 63   7 54.6   3.5 2.6   2.6 S | 173 5.4   5.4 0.00 0.00 68.0   6.5 55.6   3.3
Soda Canyon 5/6/26 1100 64.9   4.9 72   5 55.6   2.7 1.0   1.3 SE | 133 3.8   2.1 0.00 0.00 65.3   4.8 54.1   1.6
Silver Oak OV 5/6/26 1100 66.6   6.0 66   8 55.1   2.6 2.7   0.7 SE | 133 5.8   0.1 0.00 0.00 67.0   5.6 55.7   3.1
Tiara Fria (East St. Helena) 5/6/26 1100 66.8   6.7 64   10 54.2   2.5 1.5   1.3 E | 96 4.2   1.6 0.00 0.00 67.2   6.6 56.3   3.4
To Kalon Remote (TKKE) 5/6/26 1100 68.0   6.0 - - - - - - - 68.7   6.0 56.1   3.2
To Kalon 5/6/26 1100 67.6   7.2 63   14 54.4   1.2 2.1   0.3 ESE | 118 5.6   0.2 0.00 0.00 67.9   5.8 55.3   2.9
To Kalon Remote (TKN5) 5/6/26 1100 67.5   5.5 - - - - - - - 68.3   5.1 55.8   2.9
St. Helena-North 5/6/26 1100 69.3   7.1 57   10 53.6   2.3 1.3   0.2 N | 1 3.3   2.0 0.00 0.00 70.5   8.0 55.3   2.8
Twomey Calistoga 5/6/26 1100 68.8   9.6 66   13 57.3   4.3 3.0   0.9 NNW | 341 6.9   2.5 0.00 0.00 70.9   11.5 55.0   2.6
Wappo Hill Floor 5/6/26 1100 65.9   5.0 66   7 54.4   2.2 1.8   1.8 SSE | 160 4.3   2.4 0.00 0.00 66.9   4.8 54.1   3.9
Yountville (Ranch 67) 5/6/26 1100 65.4   4.9 65   8 53.4   1.4 2.3   0.3 SE | 141 5.3   1.2 0.00 0.00 65.4   4.0 54.4   2.7
Max     69.6 73 58.5 4.0 - 7.6 0.00 0.00 71.4 56.3
Avg     66.7 66 54.9 2.1 - 5.0 0.00 - - -
Min     63.3 57 53.0 0.5 - 2.1 0.00 0.00 63.6 52.5